<?xml version="1.0" encoding="UTF-8" standalone="no" ?>
<gpx xmlns="http://www.topografix.com/GPX/1/1" xmlns:xsi="http://www.w3.org/2001/XMLSchema-instance" xsi:schemaLocation="http://www.topografix.com/GPX/1/1 http://www.topografix.com/GPX/1/1/gpx.xsd" version="1.1" creator="VisuGPX - https://www.visugpx.com">
  <metadata>
    <name>RANDO LES ESTABLES ROCHE DU BACHAT 20KM</name>
    <desc><![CDATA[Bbbbbbb]]></desc>
  </metadata>
  <trk>
    <name><![CDATA[[Itinéraire] PR205 Le Rocher Tourte-23230974]]></name>
    <desc><![CDATA[]]></desc>
    <extensions>
      <line xmlns="http://www.topografix.com/GPX/gpx_style/0/2">
        <color>0000FF</color>
        <opacity>1</opacity>
        <width>4</width>
      </line>
    </extensions>
    <trkseg>
      <trkpt lat="44.90375" lon="4.15591">
        <ele>1345</ele>
        <time>2026-01-23T10:34:24Z</time>
      </trkpt>
      <trkpt lat="44.90363" lon="4.15578">
        <ele>1344</ele>
        <time>2026-01-23T10:34:44Z</time>
      </trkpt>
      <trkpt lat="44.90335" lon="4.15574">
        <ele>1342</ele>
        <time>2026-01-23T10:35:22Z</time>
      </trkpt>
      <trkpt lat="44.90317" lon="4.15566">
        <ele>1340</ele>
        <time>2026-01-23T10:35:47Z</time>
      </trkpt>
      <trkpt lat="44.90297" lon="4.15541">
        <ele>1337</ele>
        <time>2026-01-23T10:36:23Z</time>
      </trkpt>
      <trkpt lat="44.90282" lon="4.15529">
        <ele>1335</ele>
        <time>2026-01-23T10:36:46Z</time>
      </trkpt>
      <trkpt lat="44.9028" lon="4.15518">
        <ele>1335</ele>
        <time>2026-01-23T10:36:56Z</time>
      </trkpt>
      <trkpt lat="44.90271" lon="4.15513">
        <ele>1334</ele>
        <time>2026-01-23T10:37:09Z</time>
      </trkpt>
      <trkpt lat="44.90264" lon="4.15517">
        <ele>1334</ele>
        <time>2026-01-23T10:37:19Z</time>
      </trkpt>
      <trkpt lat="44.90242" lon="4.15555">
        <ele>1333</ele>
        <time>2026-01-23T10:38:06Z</time>
      </trkpt>
      <trkpt lat="44.90201" lon="4.15603">
        <ele>1331</ele>
        <time>2026-01-23T10:39:17Z</time>
      </trkpt>
      <trkpt lat="44.90189" lon="4.15609">
        <ele>1331</ele>
        <time>2026-01-23T10:39:34Z</time>
      </trkpt>
      <trkpt lat="44.90176" lon="4.15607">
        <ele>1329</ele>
        <time>2026-01-23T10:39:51Z</time>
      </trkpt>
      <trkpt lat="44.90155" lon="4.15597">
        <ele>1327</ele>
        <time>2026-01-23T10:40:21Z</time>
      </trkpt>
      <trkpt lat="44.90015" lon="4.15362">
        <ele>1311</ele>
        <time>2026-01-23T10:45:11Z</time>
      </trkpt>
      <trkpt lat="44.90007" lon="4.15332">
        <ele>1310</ele>
        <time>2026-01-23T10:45:41Z</time>
      </trkpt>
      <trkpt lat="44.90007" lon="4.15255">
        <ele>1308</ele>
        <time>2026-01-23T10:46:54Z</time>
      </trkpt>
      <trkpt lat="44.8999" lon="4.15132">
        <ele>1315</ele>
        <time>2026-01-23T10:48:53Z</time>
      </trkpt>
      <trkpt lat="44.89986" lon="4.15087">
        <ele>1320</ele>
        <time>2026-01-23T10:49:35Z</time>
      </trkpt>
      <trkpt lat="44.89982" lon="4.15078">
        <ele>1321</ele>
        <time>2026-01-23T10:49:45Z</time>
      </trkpt>
      <trkpt lat="44.89962" lon="4.15057">
        <ele>1323</ele>
        <time>2026-01-23T10:50:19Z</time>
      </trkpt>
      <trkpt lat="44.89952" lon="4.15027">
        <ele>1324</ele>
        <time>2026-01-23T10:50:50Z</time>
      </trkpt>
      <trkpt lat="44.8997" lon="4.14991">
        <ele>1326</ele>
        <time>2026-01-23T10:51:32Z</time>
      </trkpt>
      <trkpt lat="44.89986" lon="4.14906">
        <ele>1331</ele>
        <time>2026-01-23T10:52:55Z</time>
      </trkpt>
      <trkpt lat="44.90026" lon="4.14799">
        <ele>1334</ele>
        <time>2026-01-23T10:54:49Z</time>
      </trkpt>
      <trkpt lat="44.90041" lon="4.14774">
        <ele>1334</ele>
        <time>2026-01-23T10:55:20Z</time>
      </trkpt>
      <trkpt lat="44.90061" lon="4.14764">
        <ele>1333</ele>
        <time>2026-01-23T10:55:49Z</time>
      </trkpt>
      <trkpt lat="44.90074" lon="4.1475">
        <ele>1333</ele>
        <time>2026-01-23T10:56:10Z</time>
      </trkpt>
      <trkpt lat="44.90134" lon="4.14587">
        <ele>1332</ele>
        <time>2026-01-23T10:59:04Z</time>
      </trkpt>
      <trkpt lat="44.90138" lon="4.14567">
        <ele>1331</ele>
        <time>2026-01-23T10:59:24Z</time>
      </trkpt>
      <trkpt lat="44.90141" lon="4.145">
        <ele>1332</ele>
        <time>2026-01-23T11:00:27Z</time>
      </trkpt>
      <trkpt lat="44.90149" lon="4.14428">
        <ele>1330</ele>
        <time>2026-01-23T11:01:36Z</time>
      </trkpt>
      <trkpt lat="44.90169" lon="4.14344">
        <ele>1328</ele>
        <time>2026-01-23T11:03:00Z</time>
      </trkpt>
      <trkpt lat="44.90178" lon="4.14279">
        <ele>1328</ele>
        <time>2026-01-23T11:04:02Z</time>
      </trkpt>
      <trkpt lat="44.90207" lon="4.14205">
        <ele>1324</ele>
        <time>2026-01-23T11:05:22Z</time>
      </trkpt>
      <trkpt lat="44.90236" lon="4.14112">
        <ele>1323</ele>
        <time>2026-01-23T11:06:58Z</time>
      </trkpt>
      <trkpt lat="44.90266" lon="4.14032">
        <ele>1325</ele>
        <time>2026-01-23T11:08:24Z</time>
      </trkpt>
      <trkpt lat="44.90288" lon="4.13915">
        <ele>1331</ele>
        <time>2026-01-23T11:10:18Z</time>
      </trkpt>
      <trkpt lat="44.90297" lon="4.13835">
        <ele>1340</ele>
        <time>2026-01-23T11:11:35Z</time>
      </trkpt>
      <trkpt lat="44.9031" lon="4.13769">
        <ele>1345</ele>
        <time>2026-01-23T11:12:40Z</time>
      </trkpt>
      <trkpt lat="44.9031" lon="4.13749">
        <ele>1347</ele>
        <time>2026-01-23T11:12:59Z</time>
      </trkpt>
      <trkpt lat="44.90269" lon="4.13649">
        <ele>1350</ele>
        <time>2026-01-23T11:14:48Z</time>
      </trkpt>
      <trkpt lat="44.90263" lon="4.13613">
        <ele>1349</ele>
        <time>2026-01-23T11:15:23Z</time>
      </trkpt>
      <trkpt lat="44.90255" lon="4.13602">
        <ele>1349</ele>
        <time>2026-01-23T11:15:38Z</time>
      </trkpt>
      <trkpt lat="44.90225" lon="4.13587">
        <ele>1353</ele>
        <time>2026-01-23T11:16:20Z</time>
      </trkpt>
      <trkpt lat="44.90194" lon="4.13581">
        <ele>1358</ele>
        <time>2026-01-23T11:17:02Z</time>
      </trkpt>
      <trkpt lat="44.9017" lon="4.13582">
        <ele>1362</ele>
        <time>2026-01-23T11:17:34Z</time>
      </trkpt>
      <trkpt lat="44.90156" lon="4.13588">
        <ele>1365</ele>
        <time>2026-01-23T11:17:53Z</time>
      </trkpt>
      <trkpt lat="44.90134" lon="4.13606">
        <ele>1371</ele>
        <time>2026-01-23T11:18:27Z</time>
      </trkpt>
      <trkpt lat="44.90109" lon="4.13648">
        <ele>1381</ele>
        <time>2026-01-23T11:19:19Z</time>
      </trkpt>
      <trkpt lat="44.90096" lon="4.13725">
        <ele>1389</ele>
        <time>2026-01-23T11:20:34Z</time>
      </trkpt>
      <trkpt lat="44.9008" lon="4.13773">
        <ele>1393</ele>
        <time>2026-01-23T11:21:24Z</time>
      </trkpt>
      <trkpt lat="44.90076" lon="4.13796">
        <ele>1393</ele>
        <time>2026-01-23T11:21:47Z</time>
      </trkpt>
      <trkpt lat="44.90073" lon="4.13818">
        <ele>1393</ele>
        <time>2026-01-23T11:22:08Z</time>
      </trkpt>
      <trkpt lat="44.90072" lon="4.13861">
        <ele>1391</ele>
        <time>2026-01-23T11:22:48Z</time>
      </trkpt>
      <trkpt lat="44.90064" lon="4.13887">
        <ele>1391</ele>
        <time>2026-01-23T11:23:15Z</time>
      </trkpt>
      <trkpt lat="44.9003" lon="4.13963">
        <ele>1393</ele>
        <time>2026-01-23T11:24:40Z</time>
      </trkpt>
      <trkpt lat="44.90031" lon="4.13991">
        <ele>1390</ele>
        <time>2026-01-23T11:25:07Z</time>
      </trkpt>
      <trkpt lat="44.90026" lon="4.14009">
        <ele>1390</ele>
        <time>2026-01-23T11:25:25Z</time>
      </trkpt>
      <trkpt lat="44.9" lon="4.14031">
        <ele>1394</ele>
        <time>2026-01-23T11:26:05Z</time>
      </trkpt>
      <trkpt lat="44.89994" lon="4.1404">
        <ele>1393</ele>
        <time>2026-01-23T11:26:17Z</time>
      </trkpt>
      <trkpt lat="44.89973" lon="4.14053">
        <ele>1394</ele>
        <time>2026-01-23T11:26:48Z</time>
      </trkpt>
      <trkpt lat="44.89951" lon="4.1405">
        <ele>1397</ele>
        <time>2026-01-23T11:27:17Z</time>
      </trkpt>
      <trkpt lat="44.89906" lon="4.1407">
        <ele>1399</ele>
        <time>2026-01-23T11:28:20Z</time>
      </trkpt>
      <trkpt lat="44.89892" lon="4.14068">
        <ele>1400</ele>
        <time>2026-01-23T11:28:39Z</time>
      </trkpt>
      <trkpt lat="44.89835" lon="4.14026">
        <ele>1409</ele>
        <time>2026-01-23T11:30:05Z</time>
      </trkpt>
      <trkpt lat="44.89802" lon="4.14016">
        <ele>1408</ele>
        <time>2026-01-23T11:30:50Z</time>
      </trkpt>
      <trkpt lat="44.89792" lon="4.14022">
        <ele>1406</ele>
        <time>2026-01-23T11:31:04Z</time>
      </trkpt>
      <trkpt lat="44.89777" lon="4.14021">
        <ele>1405</ele>
        <time>2026-01-23T11:31:24Z</time>
      </trkpt>
      <trkpt lat="44.89754" lon="4.14012">
        <ele>1404</ele>
        <time>2026-01-23T11:31:56Z</time>
      </trkpt>
      <trkpt lat="44.89728" lon="4.13987">
        <ele>1403</ele>
        <time>2026-01-23T11:32:38Z</time>
      </trkpt>
      <trkpt lat="44.89698" lon="4.13936">
        <ele>1403</ele>
        <time>2026-01-23T11:33:41Z</time>
      </trkpt>
      <trkpt lat="44.89694" lon="4.13886">
        <ele>1404</ele>
        <time>2026-01-23T11:34:28Z</time>
      </trkpt>
      <trkpt lat="44.89699" lon="4.13862">
        <ele>1405</ele>
        <time>2026-01-23T11:34:52Z</time>
      </trkpt>
      <trkpt lat="44.89717" lon="4.13826">
        <ele>1408</ele>
        <time>2026-01-23T11:35:34Z</time>
      </trkpt>
      <trkpt lat="44.89715" lon="4.13802">
        <ele>1406</ele>
        <time>2026-01-23T11:35:56Z</time>
      </trkpt>
      <trkpt lat="44.89706" lon="4.13784">
        <ele>1405</ele>
        <time>2026-01-23T11:36:17Z</time>
      </trkpt>
      <trkpt lat="44.89689" lon="4.13727">
        <ele>1401</ele>
        <time>2026-01-23T11:37:16Z</time>
      </trkpt>
      <trkpt lat="44.89686" lon="4.13653">
        <ele>1398</ele>
        <time>2026-01-23T11:38:26Z</time>
      </trkpt>
      <trkpt lat="44.89666" lon="4.13599">
        <ele>1396</ele>
        <time>2026-01-23T11:39:23Z</time>
      </trkpt>
      <trkpt lat="44.89626" lon="4.13475">
        <ele>1389</ele>
        <time>2026-01-23T11:41:32Z</time>
      </trkpt>
      <trkpt lat="44.89586" lon="4.13333">
        <ele>1381</ele>
        <time>2026-01-23T11:43:57Z</time>
      </trkpt>
      <trkpt lat="44.89564" lon="4.13188">
        <ele>1378</ele>
        <time>2026-01-23T11:46:17Z</time>
      </trkpt>
      <trkpt lat="44.89555" lon="4.13094">
        <ele>1377</ele>
        <time>2026-01-23T11:47:47Z</time>
      </trkpt>
      <trkpt lat="44.89542" lon="4.13084">
        <ele>1377</ele>
        <time>2026-01-23T11:48:06Z</time>
      </trkpt>
      <trkpt lat="44.89583" lon="4.12977">
        <ele>1377</ele>
        <time>2026-01-23T11:50:01Z</time>
      </trkpt>
      <trkpt lat="44.89601" lon="4.12923">
        <ele>1376</ele>
        <time>2026-01-23T11:50:58Z</time>
      </trkpt>
      <trkpt lat="44.89635" lon="4.12816">
        <ele>1376</ele>
        <time>2026-01-23T11:52:49Z</time>
      </trkpt>
      <trkpt lat="44.89652" lon="4.12752">
        <ele>1376</ele>
        <time>2026-01-23T11:53:53Z</time>
      </trkpt>
      <trkpt lat="44.89672" lon="4.12714">
        <ele>1377</ele>
        <time>2026-01-23T11:54:38Z</time>
      </trkpt>
      <trkpt lat="44.89742" lon="4.1262">
        <ele>1376</ele>
        <time>2026-01-23T11:56:47Z</time>
      </trkpt>
      <trkpt lat="44.8979" lon="4.12529">
        <ele>1372</ele>
        <time>2026-01-23T11:58:34Z</time>
      </trkpt>
      <trkpt lat="44.89806" lon="4.1249">
        <ele>1372</ele>
        <time>2026-01-23T11:59:17Z</time>
      </trkpt>
      <trkpt lat="44.89839" lon="4.12337">
        <ele>1370</ele>
        <time>2026-01-23T12:01:48Z</time>
      </trkpt>
      <trkpt lat="44.89873" lon="4.12136">
        <ele>1365</ele>
        <time>2026-01-23T12:05:03Z</time>
      </trkpt>
      <trkpt lat="44.89884" lon="4.12077">
        <ele>1365</ele>
        <time>2026-01-23T12:06:01Z</time>
      </trkpt>
      <trkpt lat="44.89895" lon="4.12034">
        <ele>1366</ele>
        <time>2026-01-23T12:06:44Z</time>
      </trkpt>
      <trkpt lat="44.89926" lon="4.11982">
        <ele>1362</ele>
        <time>2026-01-23T12:07:48Z</time>
      </trkpt>
      <trkpt lat="44.90011" lon="4.11809">
        <ele>1353</ele>
        <time>2026-01-23T12:11:07Z</time>
      </trkpt>
      <trkpt lat="44.90084" lon="4.11686">
        <ele>1342</ele>
        <time>2026-01-23T12:13:39Z</time>
      </trkpt>
      <trkpt lat="44.90131" lon="4.11543">
        <ele>1334</ele>
        <time>2026-01-23T12:16:08Z</time>
      </trkpt>
      <trkpt lat="44.90148" lon="4.11515">
        <ele>1332</ele>
        <time>2026-01-23T12:16:43Z</time>
      </trkpt>
      <trkpt lat="44.90191" lon="4.11485">
        <ele>1328</ele>
        <time>2026-01-23T12:17:47Z</time>
      </trkpt>
      <trkpt lat="44.90243" lon="4.11463">
        <ele>1322</ele>
        <time>2026-01-23T12:18:59Z</time>
      </trkpt>
      <trkpt lat="44.90249" lon="4.1145">
        <ele>1321</ele>
        <time>2026-01-23T12:19:14Z</time>
      </trkpt>
      <trkpt lat="44.90238" lon="4.1127">
        <ele>1319</ele>
        <time>2026-01-23T12:22:05Z</time>
      </trkpt>
      <trkpt lat="44.90245" lon="4.11253">
        <ele>1319</ele>
        <time>2026-01-23T12:22:23Z</time>
      </trkpt>
      <trkpt lat="44.90334" lon="4.11085">
        <ele>1305</ele>
        <time>2026-01-23T12:25:42Z</time>
      </trkpt>
      <trkpt lat="44.90345" lon="4.11058">
        <ele>1304</ele>
        <time>2026-01-23T12:26:11Z</time>
        <extensions>
          <visugpx:TrkExtension xmlns:visugpx="https://www.visugpx.com/editgpx/">
            <visugpx:node>1</visugpx:node>
            </visugpx:TrkExtension>
        </extensions>
      </trkpt>
      <trkpt lat="44.90346" lon="4.11054">
        <ele>1304</ele>
      </trkpt>
      <trkpt lat="44.90371" lon="4.10878">
        <ele>1298.9</ele>
      </trkpt>
      <trkpt lat="44.90708" lon="4.10397">
        <ele>1265.8</ele>
      </trkpt>
      <trkpt lat="44.90762" lon="4.10326">
        <ele>1263.7</ele>
      </trkpt>
      <trkpt lat="44.90795" lon="4.1027">
        <ele>1262.4</ele>
      </trkpt>
      <trkpt lat="44.90832" lon="4.10189">
        <ele>1262</ele>
      </trkpt>
      <trkpt lat="44.90967" lon="4.09791">
        <ele>1271.1</ele>
      </trkpt>
      <trkpt lat="44.91014" lon="4.09771">
        <ele>1276.6</ele>
      </trkpt>
      <trkpt lat="44.91087" lon="4.09723">
        <ele>1285.5</ele>
      </trkpt>
      <trkpt lat="44.91189" lon="4.09654">
        <ele>1301.2</ele>
      </trkpt>
      <trkpt lat="44.91234" lon="4.0961">
        <ele>1309.4</ele>
      </trkpt>
      <trkpt lat="44.91241" lon="4.09607">
        <ele>1310.4</ele>
      </trkpt>
      <trkpt lat="44.91247" lon="4.09608">
        <ele>1311</ele>
      </trkpt>
      <trkpt lat="44.91274" lon="4.09652">
        <ele>1311.9</ele>
        <extensions>
          <visugpx:TrkExtension xmlns:visugpx="https://www.visugpx.com/editgpx/">
            <visugpx:node>2</visugpx:node>
            </visugpx:TrkExtension>
        </extensions>
      </trkpt>
      <trkpt lat="44.913" lon="4.09695">
        <ele>1313.2</ele>
      </trkpt>
      <trkpt lat="44.91331" lon="4.0972">
        <ele>1314</ele>
      </trkpt>
      <trkpt lat="44.91343" lon="4.09739">
        <ele>1313.2</ele>
      </trkpt>
      <trkpt lat="44.91379" lon="4.09768">
        <ele>1313.3</ele>
      </trkpt>
      <trkpt lat="44.91422" lon="4.09823">
        <ele>1307.9</ele>
      </trkpt>
      <trkpt lat="44.91471" lon="4.09844">
        <ele>1305.5</ele>
      </trkpt>
      <trkpt lat="44.91527" lon="4.09855">
        <ele>1301.9</ele>
      </trkpt>
      <trkpt lat="44.9159" lon="4.09866">
        <ele>1296</ele>
      </trkpt>
      <trkpt lat="44.91615" lon="4.09861">
        <ele>1295.6</ele>
      </trkpt>
      <trkpt lat="44.91654" lon="4.09868">
        <ele>1291</ele>
      </trkpt>
      <trkpt lat="44.91675" lon="4.09867">
        <ele>1289</ele>
      </trkpt>
      <trkpt lat="44.91777" lon="4.09825">
        <ele>1282</ele>
      </trkpt>
      <trkpt lat="44.91804" lon="4.09819">
        <ele>1279.7</ele>
      </trkpt>
      <trkpt lat="44.91817" lon="4.09811">
        <ele>1279.2</ele>
      </trkpt>
      <trkpt lat="44.91876" lon="4.09737">
        <ele>1275</ele>
      </trkpt>
      <trkpt lat="44.91899" lon="4.09677">
        <ele>1273.1</ele>
      </trkpt>
      <trkpt lat="44.91923" lon="4.09651">
        <ele>1269.3</ele>
      </trkpt>
      <trkpt lat="44.91945" lon="4.09639">
        <ele>1265.9</ele>
      </trkpt>
      <trkpt lat="44.91957" lon="4.09618">
        <ele>1264.2</ele>
        <extensions>
          <visugpx:TrkExtension xmlns:visugpx="https://www.visugpx.com/editgpx/">
            <visugpx:node>3</visugpx:node>
            </visugpx:TrkExtension>
        </extensions>
      </trkpt>
      <trkpt lat="44.91969" lon="4.09596">
        <ele>1261.7</ele>
      </trkpt>
      <trkpt lat="44.91971" lon="4.09553">
        <ele>1261.3</ele>
      </trkpt>
      <trkpt lat="44.91961" lon="4.09459">
        <ele>1263</ele>
      </trkpt>
      <trkpt lat="44.91916" lon="4.09173">
        <ele>1251.8</ele>
      </trkpt>
      <trkpt lat="44.91874" lon="4.09066">
        <ele>1252.5</ele>
      </trkpt>
      <trkpt lat="44.91849" lon="4.08928">
        <ele>1250</ele>
      </trkpt>
      <trkpt lat="44.91826" lon="4.08863">
        <ele>1248.8</ele>
      </trkpt>
      <trkpt lat="44.91771" lon="4.08779">
        <ele>1250.1</ele>
      </trkpt>
      <trkpt lat="44.91679" lon="4.08579">
        <ele>1240.3</ele>
      </trkpt>
      <trkpt lat="44.91657" lon="4.08521">
        <ele>1236.1</ele>
      </trkpt>
      <trkpt lat="44.91657" lon="4.08508">
        <ele>1235</ele>
      </trkpt>
      <trkpt lat="44.91661" lon="4.08489">
        <ele>1233.1</ele>
      </trkpt>
      <trkpt lat="44.91663" lon="4.08463">
        <ele>1230.6</ele>
      </trkpt>
      <trkpt lat="44.9166" lon="4.08441">
        <ele>1228.9</ele>
      </trkpt>
      <trkpt lat="44.91649" lon="4.08423">
        <ele>1227.3</ele>
      </trkpt>
      <trkpt lat="44.9164" lon="4.08414">
        <ele>1226.8</ele>
      </trkpt>
      <trkpt lat="44.91644" lon="4.08408">
        <ele>1226.1</ele>
        <extensions>
          <visugpx:TrkExtension xmlns:visugpx="https://www.visugpx.com/editgpx/">
            <visugpx:node>4</visugpx:node>
            </visugpx:TrkExtension>
        </extensions>
      </trkpt>
      <trkpt lat="44.9164" lon="4.08414">
        <ele>1226.8</ele>
      </trkpt>
      <trkpt lat="44.91632" lon="4.08417">
        <ele>1227.5</ele>
      </trkpt>
      <trkpt lat="44.91624" lon="4.08417">
        <ele>1228.1</ele>
      </trkpt>
      <trkpt lat="44.9161" lon="4.08415">
        <ele>1228.9</ele>
      </trkpt>
      <trkpt lat="44.91566" lon="4.08398">
        <ele>1228.6</ele>
      </trkpt>
      <trkpt lat="44.91555" lon="4.08397">
        <ele>1228.9</ele>
      </trkpt>
      <trkpt lat="44.91518" lon="4.08406">
        <ele>1229.7</ele>
      </trkpt>
      <trkpt lat="44.91465" lon="4.08413">
        <ele>1229.7</ele>
      </trkpt>
      <trkpt lat="44.9145" lon="4.08418">
        <ele>1231</ele>
      </trkpt>
      <trkpt lat="44.91377" lon="4.08471">
        <ele>1231.6</ele>
      </trkpt>
      <trkpt lat="44.9131" lon="4.08544">
        <ele>1236.1</ele>
      </trkpt>
      <trkpt lat="44.91231" lon="4.08627">
        <ele>1241.5</ele>
      </trkpt>
      <trkpt lat="44.91219" lon="4.08636">
        <ele>1241.7</ele>
      </trkpt>
      <trkpt lat="44.91199" lon="4.08646">
        <ele>1242.6</ele>
      </trkpt>
      <trkpt lat="44.9119" lon="4.08655">
        <ele>1242.9</ele>
      </trkpt>
      <trkpt lat="44.91176" lon="4.08674">
        <ele>1244</ele>
      </trkpt>
      <trkpt lat="44.91159" lon="4.08704">
        <ele>1245.9</ele>
      </trkpt>
      <trkpt lat="44.91164" lon="4.08684">
        <ele>1244.2</ele>
        <extensions>
          <visugpx:TrkExtension xmlns:visugpx="https://www.visugpx.com/editgpx/">
            <visugpx:node>5</visugpx:node>
            </visugpx:TrkExtension>
        </extensions>
      </trkpt>
      <trkpt lat="44.91159" lon="4.08704">
        <ele>1245.9</ele>
      </trkpt>
      <trkpt lat="44.91126" lon="4.08778">
        <ele>1251.6</ele>
      </trkpt>
      <trkpt lat="44.91113" lon="4.08814">
        <ele>1253.7</ele>
      </trkpt>
      <trkpt lat="44.91104" lon="4.08846">
        <ele>1256.3</ele>
      </trkpt>
      <trkpt lat="44.911" lon="4.08876">
        <ele>1258.7</ele>
      </trkpt>
      <trkpt lat="44.91099" lon="4.08927">
        <ele>1262</ele>
      </trkpt>
      <trkpt lat="44.91081" lon="4.09017">
        <ele>1268.2</ele>
      </trkpt>
      <trkpt lat="44.91072" lon="4.09045">
        <ele>1270.6</ele>
      </trkpt>
      <trkpt lat="44.91053" lon="4.0913">
        <ele>1275.3</ele>
      </trkpt>
      <trkpt lat="44.91032" lon="4.09255">
        <ele>1280.3</ele>
      </trkpt>
      <trkpt lat="44.91007" lon="4.0967">
        <ele>1277.7</ele>
      </trkpt>
      <trkpt lat="44.90967" lon="4.09791">
        <ele>1271.1</ele>
      </trkpt>
      <trkpt lat="44.90832" lon="4.10189">
        <ele>1262</ele>
      </trkpt>
      <trkpt lat="44.90795" lon="4.1027">
        <ele>1262.4</ele>
      </trkpt>
      <trkpt lat="44.90685" lon="4.10241">
        <ele>1262.7</ele>
        <extensions>
          <visugpx:TrkExtension xmlns:visugpx="https://www.visugpx.com/editgpx/">
            <visugpx:node>6</visugpx:node>
            </visugpx:TrkExtension>
        </extensions>
      </trkpt>
      <trkpt lat="44.9044" lon="4.10176">
        <ele>1266.5</ele>
      </trkpt>
      <trkpt lat="44.90427" lon="4.10236">
        <ele>1270.4</ele>
        <extensions>
          <visugpx:TrkExtension xmlns:visugpx="https://www.visugpx.com/editgpx/">
            <visugpx:node>7</visugpx:node>
            </visugpx:TrkExtension>
        </extensions>
      </trkpt>
      <trkpt lat="44.90414" lon="4.10291">
        <ele>1275</ele>
        <time>2026-01-23T12:38:34Z</time>
        <extensions>
          <visugpx:TrkExtension xmlns:visugpx="https://www.visugpx.com/editgpx/">
            <visugpx:node>8</visugpx:node>
            </visugpx:TrkExtension>
        </extensions>
      </trkpt>
      <trkpt lat="44.90313" lon="4.10208">
        <ele>1276</ele>
        <time>2026-01-23T12:41:10Z</time>
      </trkpt>
      <trkpt lat="44.90215" lon="4.10107">
        <ele>1278</ele>
        <time>2026-01-23T12:43:52Z</time>
      </trkpt>
      <trkpt lat="44.90099" lon="4.09954">
        <ele>1283</ele>
        <time>2026-01-23T12:47:23Z</time>
      </trkpt>
      <trkpt lat="44.90025" lon="4.09897">
        <ele>1284</ele>
        <time>2026-01-23T12:49:16Z</time>
      </trkpt>
      <trkpt lat="44.89967" lon="4.09859">
        <ele>1284</ele>
        <time>2026-01-23T12:50:41Z</time>
      </trkpt>
      <trkpt lat="44.89904" lon="4.09826">
        <ele>1284</ele>
        <time>2026-01-23T12:52:11Z</time>
      </trkpt>
      <trkpt lat="44.89861" lon="4.09798">
        <ele>1284</ele>
        <time>2026-01-23T12:53:14Z</time>
      </trkpt>
      <trkpt lat="44.89824" lon="4.0978">
        <ele>1285</ele>
        <time>2026-01-23T12:54:06Z</time>
      </trkpt>
      <trkpt lat="44.89785" lon="4.09757">
        <ele>1285</ele>
        <time>2026-01-23T12:55:03Z</time>
      </trkpt>
      <trkpt lat="44.89747" lon="4.09737">
        <ele>1285</ele>
        <time>2026-01-23T12:55:57Z</time>
      </trkpt>
      <trkpt lat="44.89708" lon="4.09725">
        <ele>1288</ele>
        <time>2026-01-23T12:56:50Z</time>
      </trkpt>
      <trkpt lat="44.89658" lon="4.09703">
        <ele>1289</ele>
        <time>2026-01-23T12:58:00Z</time>
      </trkpt>
      <trkpt lat="44.89513" lon="4.09656">
        <ele>1289</ele>
        <time>2026-01-23T13:01:19Z</time>
      </trkpt>
      <trkpt lat="44.89436" lon="4.09624">
        <ele>1289</ele>
        <time>2026-01-23T13:03:06Z</time>
      </trkpt>
      <trkpt lat="44.89348" lon="4.09593">
        <ele>1287</ele>
        <time>2026-01-23T13:05:07Z</time>
      </trkpt>
      <trkpt lat="44.89334" lon="4.09592">
        <ele>1288</ele>
        <time>2026-01-23T13:05:25Z</time>
      </trkpt>
      <trkpt lat="44.89297" lon="4.09583">
        <ele>1287</ele>
        <time>2026-01-23T13:06:15Z</time>
      </trkpt>
      <trkpt lat="44.89256" lon="4.09578">
        <ele>1287</ele>
        <time>2026-01-23T13:07:10Z</time>
      </trkpt>
      <trkpt lat="44.89236" lon="4.0957">
        <ele>1286</ele>
        <time>2026-01-23T13:07:38Z</time>
      </trkpt>
      <trkpt lat="44.89218" lon="4.0957">
        <ele>1287</ele>
        <time>2026-01-23T13:08:02Z</time>
      </trkpt>
      <trkpt lat="44.89196" lon="4.09578">
        <ele>1288</ele>
        <time>2026-01-23T13:08:32Z</time>
      </trkpt>
      <trkpt lat="44.89135" lon="4.09592">
        <ele>1291</ele>
        <time>2026-01-23T13:09:55Z</time>
      </trkpt>
      <trkpt lat="44.89093" lon="4.09594">
        <ele>1291</ele>
        <time>2026-01-23T13:10:51Z</time>
      </trkpt>
      <trkpt lat="44.89043" lon="4.09607">
        <ele>1292</ele>
        <time>2026-01-23T13:11:59Z</time>
      </trkpt>
      <trkpt lat="44.8899" lon="4.09628">
        <ele>1294</ele>
        <time>2026-01-23T13:13:12Z</time>
      </trkpt>
      <trkpt lat="44.88925" lon="4.09661">
        <ele>1296</ele>
        <time>2026-01-23T13:14:44Z</time>
      </trkpt>
      <trkpt lat="44.88844" lon="4.09714">
        <ele>1295</ele>
        <time>2026-01-23T13:16:44Z</time>
      </trkpt>
      <trkpt lat="44.88792" lon="4.09752">
        <ele>1295</ele>
        <time>2026-01-23T13:18:02Z</time>
      </trkpt>
      <trkpt lat="44.88769" lon="4.09831">
        <ele>1303</ele>
        <time>2026-01-23T13:19:23Z</time>
      </trkpt>
      <trkpt lat="44.88749" lon="4.09883">
        <ele>1304</ele>
        <time>2026-01-23T13:20:18Z</time>
      </trkpt>
      <trkpt lat="44.88718" lon="4.09953">
        <ele>1304</ele>
        <time>2026-01-23T13:21:37Z</time>
      </trkpt>
      <trkpt lat="44.88701" lon="4.10063">
        <ele>1311</ele>
        <time>2026-01-23T13:23:23Z</time>
      </trkpt>
      <trkpt lat="44.88682" lon="4.10155">
        <ele>1317</ele>
        <time>2026-01-23T13:24:54Z</time>
      </trkpt>
      <trkpt lat="44.88657" lon="4.102">
        <ele>1320</ele>
        <time>2026-01-23T13:25:48Z</time>
      </trkpt>
      <trkpt lat="44.88625" lon="4.10289">
        <ele>1327</ele>
        <time>2026-01-23T13:27:22Z</time>
      </trkpt>
      <trkpt lat="44.88609" lon="4.10321">
        <ele>1328</ele>
        <time>2026-01-23T13:27:59Z</time>
      </trkpt>
      <trkpt lat="44.88579" lon="4.10411">
        <ele>1332</ele>
        <time>2026-01-23T13:29:33Z</time>
      </trkpt>
      <trkpt lat="44.88573" lon="4.10487">
        <ele>1338</ele>
        <time>2026-01-23T13:30:45Z</time>
      </trkpt>
      <trkpt lat="44.88569" lon="4.10511">
        <ele>1340</ele>
        <time>2026-01-23T13:31:09Z</time>
      </trkpt>
      <trkpt lat="44.88559" lon="4.10558">
        <ele>1342</ele>
        <time>2026-01-23T13:31:55Z</time>
      </trkpt>
      <trkpt lat="44.88554" lon="4.10572">
        <ele>1343</ele>
        <time>2026-01-23T13:32:10Z</time>
      </trkpt>
      <trkpt lat="44.88548" lon="4.1058">
        <ele>1342</ele>
        <time>2026-01-23T13:32:21Z</time>
      </trkpt>
      <trkpt lat="44.88536" lon="4.10667">
        <ele>1345</ele>
        <time>2026-01-23T13:33:45Z</time>
      </trkpt>
      <trkpt lat="44.88526" lon="4.1077">
        <ele>1344</ele>
        <time>2026-01-23T13:35:23Z</time>
      </trkpt>
      <trkpt lat="44.88517" lon="4.10826">
        <ele>1342</ele>
        <time>2026-01-23T13:36:17Z</time>
      </trkpt>
      <trkpt lat="44.88529" lon="4.10873">
        <ele>1345</ele>
        <time>2026-01-23T13:37:05Z</time>
      </trkpt>
      <trkpt lat="44.88538" lon="4.10897">
        <ele>1347</ele>
        <time>2026-01-23T13:37:30Z</time>
      </trkpt>
      <trkpt lat="44.88546" lon="4.10908">
        <ele>1349</ele>
        <time>2026-01-23T13:37:45Z</time>
      </trkpt>
      <trkpt lat="44.88544" lon="4.10924">
        <ele>1348</ele>
        <time>2026-01-23T13:38:00Z</time>
      </trkpt>
      <trkpt lat="44.8855" lon="4.10933">
        <ele>1349</ele>
        <time>2026-01-23T13:38:12Z</time>
      </trkpt>
      <trkpt lat="44.8855" lon="4.10943">
        <ele>1348</ele>
        <time>2026-01-23T13:38:22Z</time>
      </trkpt>
      <trkpt lat="44.88564" lon="4.10969">
        <ele>1350</ele>
        <time>2026-01-23T13:38:52Z</time>
      </trkpt>
      <trkpt lat="44.8859" lon="4.11">
        <ele>1354</ele>
        <time>2026-01-23T13:39:38Z</time>
      </trkpt>
      <trkpt lat="44.88606" lon="4.11014">
        <ele>1356</ele>
        <time>2026-01-23T13:40:03Z</time>
      </trkpt>
      <trkpt lat="44.8863" lon="4.11011">
        <ele>1362</ele>
        <time>2026-01-23T13:40:35Z</time>
      </trkpt>
      <trkpt lat="44.8865" lon="4.11003">
        <ele>1366</ele>
        <time>2026-01-23T13:41:03Z</time>
      </trkpt>
      <trkpt lat="44.88674" lon="4.11004">
        <ele>1371</ele>
        <time>2026-01-23T13:41:35Z</time>
      </trkpt>
      <trkpt lat="44.88692" lon="4.10998">
        <ele>1375</ele>
        <time>2026-01-23T13:42:00Z</time>
      </trkpt>
      <trkpt lat="44.88725" lon="4.11006">
        <ele>1381</ele>
        <time>2026-01-23T13:42:44Z</time>
      </trkpt>
      <trkpt lat="44.88739" lon="4.11018">
        <ele>1382</ele>
        <time>2026-01-23T13:43:06Z</time>
      </trkpt>
      <trkpt lat="44.88752" lon="4.11022">
        <ele>1385</ele>
        <time>2026-01-23T13:43:24Z</time>
      </trkpt>
      <trkpt lat="44.88774" lon="4.11016">
        <ele>1389</ele>
        <time>2026-01-23T13:43:54Z</time>
      </trkpt>
      <trkpt lat="44.88788" lon="4.11016">
        <ele>1391</ele>
        <time>2026-01-23T13:44:13Z</time>
      </trkpt>
      <trkpt lat="44.88794" lon="4.11006">
        <ele>1393</ele>
        <time>2026-01-23T13:44:25Z</time>
      </trkpt>
      <trkpt lat="44.88796" lon="4.10993">
        <ele>1394</ele>
        <time>2026-01-23T13:44:37Z</time>
      </trkpt>
      <trkpt lat="44.88813" lon="4.1099">
        <ele>1397</ele>
        <time>2026-01-23T13:45:00Z</time>
      </trkpt>
      <trkpt lat="44.88822" lon="4.11006">
        <ele>1398</ele>
        <time>2026-01-23T13:45:20Z</time>
      </trkpt>
      <trkpt lat="44.88828" lon="4.11005">
        <ele>1399</ele>
        <time>2026-01-23T13:45:28Z</time>
      </trkpt>
      <trkpt lat="44.88836" lon="4.11008">
        <ele>1400</ele>
        <time>2026-01-23T13:45:39Z</time>
      </trkpt>
      <trkpt lat="44.88844" lon="4.11017">
        <ele>1402</ele>
        <time>2026-01-23T13:45:52Z</time>
      </trkpt>
      <trkpt lat="44.88857" lon="4.11025">
        <ele>1404</ele>
        <time>2026-01-23T13:46:11Z</time>
      </trkpt>
      <trkpt lat="44.88862" lon="4.11048">
        <ele>1405</ele>
        <time>2026-01-23T13:46:34Z</time>
      </trkpt>
      <trkpt lat="44.88894" lon="4.11145">
        <ele>1409</ele>
        <time>2026-01-23T13:48:15Z</time>
      </trkpt>
      <trkpt lat="44.88908" lon="4.11209">
        <ele>1411</ele>
        <time>2026-01-23T13:49:19Z</time>
      </trkpt>
      <trkpt lat="44.88912" lon="4.11266">
        <ele>1410</ele>
        <time>2026-01-23T13:50:13Z</time>
      </trkpt>
      <trkpt lat="44.88969" lon="4.11447">
        <ele>1423</ele>
        <time>2026-01-23T13:53:20Z</time>
      </trkpt>
      <trkpt lat="44.88984" lon="4.11531">
        <ele>1423</ele>
        <time>2026-01-23T13:54:42Z</time>
      </trkpt>
      <trkpt lat="44.88995" lon="4.11568">
        <ele>1424</ele>
        <time>2026-01-23T13:55:20Z</time>
      </trkpt>
      <trkpt lat="44.89008" lon="4.11589">
        <ele>1427</ele>
        <time>2026-01-23T13:55:46Z</time>
      </trkpt>
      <trkpt lat="44.89023" lon="4.11605">
        <ele>1429</ele>
        <time>2026-01-23T13:56:11Z</time>
      </trkpt>
      <trkpt lat="44.89052" lon="4.11614">
        <ele>1435</ele>
        <time>2026-01-23T13:56:51Z</time>
      </trkpt>
      <trkpt lat="44.89074" lon="4.11614">
        <ele>1439</ele>
        <time>2026-01-23T13:57:20Z</time>
      </trkpt>
      <trkpt lat="44.89084" lon="4.11604">
        <ele>1441</ele>
        <time>2026-01-23T13:57:37Z</time>
      </trkpt>
      <trkpt lat="44.8911" lon="4.11594">
        <ele>1447</ele>
        <time>2026-01-23T13:58:13Z</time>
      </trkpt>
      <trkpt lat="44.89117" lon="4.11586">
        <ele>1449</ele>
        <time>2026-01-23T13:58:25Z</time>
      </trkpt>
      <trkpt lat="44.89125" lon="4.11586">
        <ele>1450</ele>
        <time>2026-01-23T13:58:35Z</time>
      </trkpt>
      <trkpt lat="44.89142" lon="4.11598">
        <ele>1453</ele>
        <time>2026-01-23T13:59:01Z</time>
      </trkpt>
      <trkpt lat="44.8917" lon="4.11629">
        <ele>1457</ele>
        <time>2026-01-23T13:59:48Z</time>
      </trkpt>
      <trkpt lat="44.89213" lon="4.11687">
        <ele>1463</ele>
        <time>2026-01-23T14:01:08Z</time>
      </trkpt>
      <trkpt lat="44.89211" lon="4.11704">
        <ele>1461</ele>
        <time>2026-01-23T14:01:24Z</time>
      </trkpt>
      <trkpt lat="44.89199" lon="4.11731">
        <ele>1457</ele>
        <time>2026-01-23T14:01:54Z</time>
      </trkpt>
      <trkpt lat="44.89197" lon="4.11756">
        <ele>1455</ele>
        <time>2026-01-23T14:02:18Z</time>
      </trkpt>
      <trkpt lat="44.89212" lon="4.11892">
        <ele>1454</ele>
        <time>2026-01-23T14:04:28Z</time>
      </trkpt>
      <trkpt lat="44.89201" lon="4.12007">
        <ele>1452</ele>
        <time>2026-01-23T14:06:18Z</time>
      </trkpt>
      <trkpt lat="44.89188" lon="4.12107">
        <ele>1449</ele>
        <time>2026-01-23T14:07:54Z</time>
      </trkpt>
      <trkpt lat="44.89185" lon="4.12159">
        <ele>1447</ele>
        <time>2026-01-23T14:08:43Z</time>
      </trkpt>
      <trkpt lat="44.8918" lon="4.12186">
        <ele>1446</ele>
        <time>2026-01-23T14:09:09Z</time>
      </trkpt>
      <trkpt lat="44.89172" lon="4.12205">
        <ele>1445</ele>
        <time>2026-01-23T14:09:30Z</time>
      </trkpt>
      <trkpt lat="44.89153" lon="4.12233">
        <ele>1442</ele>
        <time>2026-01-23T14:10:07Z</time>
      </trkpt>
      <trkpt lat="44.89153" lon="4.1225">
        <ele>1442</ele>
        <time>2026-01-23T14:10:23Z</time>
      </trkpt>
      <trkpt lat="44.89161" lon="4.12261">
        <ele>1442</ele>
        <time>2026-01-23T14:10:38Z</time>
      </trkpt>
      <trkpt lat="44.89186" lon="4.12284">
        <ele>1442</ele>
        <time>2026-01-23T14:11:18Z</time>
      </trkpt>
      <trkpt lat="44.89198" lon="4.123">
        <ele>1442</ele>
        <time>2026-01-23T14:11:40Z</time>
      </trkpt>
      <trkpt lat="44.89218" lon="4.12343">
        <ele>1439</ele>
        <time>2026-01-23T14:12:28Z</time>
      </trkpt>
      <trkpt lat="44.89257" lon="4.12379">
        <ele>1436</ele>
        <time>2026-01-23T14:13:31Z</time>
      </trkpt>
      <trkpt lat="44.89274" lon="4.12383">
        <ele>1434</ele>
        <time>2026-01-23T14:13:54Z</time>
      </trkpt>
      <trkpt lat="44.89289" lon="4.12376">
        <ele>1435</ele>
        <time>2026-01-23T14:14:15Z</time>
      </trkpt>
      <trkpt lat="44.89299" lon="4.12376">
        <ele>1434</ele>
        <time>2026-01-23T14:14:28Z</time>
      </trkpt>
      <trkpt lat="44.89314" lon="4.12382">
        <ele>1433</ele>
        <time>2026-01-23T14:14:49Z</time>
      </trkpt>
      <trkpt lat="44.89337" lon="4.12374">
        <ele>1432</ele>
        <time>2026-01-23T14:15:20Z</time>
      </trkpt>
      <trkpt lat="44.89346" lon="4.12381">
        <ele>1431</ele>
        <time>2026-01-23T14:15:34Z</time>
      </trkpt>
      <trkpt lat="44.89349" lon="4.12412">
        <ele>1427</ele>
        <time>2026-01-23T14:16:04Z</time>
      </trkpt>
      <trkpt lat="44.89336" lon="4.12451">
        <ele>1425</ele>
        <time>2026-01-23T14:16:44Z</time>
      </trkpt>
      <trkpt lat="44.89336" lon="4.12464">
        <ele>1423</ele>
        <time>2026-01-23T14:16:57Z</time>
      </trkpt>
      <trkpt lat="44.89332" lon="4.1248">
        <ele>1422</ele>
        <time>2026-01-23T14:17:13Z</time>
      </trkpt>
      <trkpt lat="44.8933" lon="4.12524">
        <ele>1418</ele>
        <time>2026-01-23T14:17:54Z</time>
      </trkpt>
      <trkpt lat="44.89309" lon="4.12608">
        <ele>1412</ele>
        <time>2026-01-23T14:19:19Z</time>
      </trkpt>
      <trkpt lat="44.89301" lon="4.12617">
        <ele>1412</ele>
        <time>2026-01-23T14:19:32Z</time>
      </trkpt>
      <trkpt lat="44.89275" lon="4.12623">
        <ele>1412</ele>
        <time>2026-01-23T14:20:07Z</time>
      </trkpt>
      <trkpt lat="44.8924" lon="4.12652">
        <ele>1410</ele>
        <time>2026-01-23T14:21:02Z</time>
      </trkpt>
      <trkpt lat="44.89227" lon="4.12673">
        <ele>1408</ele>
        <time>2026-01-23T14:21:28Z</time>
      </trkpt>
      <trkpt lat="44.8922" lon="4.12695">
        <ele>1407</ele>
        <time>2026-01-23T14:21:51Z</time>
      </trkpt>
      <trkpt lat="44.89216" lon="4.12732">
        <ele>1405</ele>
        <time>2026-01-23T14:22:26Z</time>
      </trkpt>
      <trkpt lat="44.89215" lon="4.12823">
        <ele>1400</ele>
        <time>2026-01-23T14:23:52Z</time>
      </trkpt>
      <trkpt lat="44.89226" lon="4.12888">
        <ele>1397</ele>
        <time>2026-01-23T14:24:55Z</time>
      </trkpt>
      <trkpt lat="44.89235" lon="4.12909">
        <ele>1396</ele>
        <time>2026-01-23T14:25:19Z</time>
      </trkpt>
      <trkpt lat="44.8924" lon="4.12968">
        <ele>1393</ele>
        <time>2026-01-23T14:26:15Z</time>
      </trkpt>
      <trkpt lat="44.89239" lon="4.12988">
        <ele>1392</ele>
        <time>2026-01-23T14:26:34Z</time>
      </trkpt>
      <trkpt lat="44.89242" lon="4.13002">
        <ele>1392</ele>
        <time>2026-01-23T14:26:48Z</time>
      </trkpt>
      <trkpt lat="44.89242" lon="4.13018">
        <ele>1391</ele>
        <time>2026-01-23T14:27:03Z</time>
      </trkpt>
      <trkpt lat="44.89248" lon="4.13042">
        <ele>1389</ele>
        <time>2026-01-23T14:27:27Z</time>
      </trkpt>
      <trkpt lat="44.8925" lon="4.1307">
        <ele>1387</ele>
        <time>2026-01-23T14:27:53Z</time>
      </trkpt>
      <trkpt lat="44.8925" lon="4.1312">
        <ele>1384</ele>
        <time>2026-01-23T14:28:41Z</time>
      </trkpt>
      <trkpt lat="44.89247" lon="4.13141">
        <ele>1383</ele>
        <time>2026-01-23T14:29:01Z</time>
      </trkpt>
      <trkpt lat="44.89248" lon="4.13178">
        <ele>1382</ele>
        <time>2026-01-23T14:29:36Z</time>
      </trkpt>
      <trkpt lat="44.89254" lon="4.13203">
        <ele>1381</ele>
        <time>2026-01-23T14:30:01Z</time>
      </trkpt>
      <trkpt lat="44.89263" lon="4.13216">
        <ele>1380</ele>
        <time>2026-01-23T14:30:18Z</time>
      </trkpt>
      <trkpt lat="44.89281" lon="4.13232">
        <ele>1380</ele>
        <time>2026-01-23T14:30:46Z</time>
      </trkpt>
      <trkpt lat="44.89298" lon="4.13255">
        <ele>1379</ele>
        <time>2026-01-23T14:31:18Z</time>
      </trkpt>
      <trkpt lat="44.89315" lon="4.13267">
        <ele>1380</ele>
        <time>2026-01-23T14:31:43Z</time>
      </trkpt>
      <trkpt lat="44.89336" lon="4.13291">
        <ele>1380</ele>
        <time>2026-01-23T14:32:19Z</time>
      </trkpt>
      <trkpt lat="44.89367" lon="4.13317">
        <ele>1380</ele>
        <time>2026-01-23T14:33:07Z</time>
      </trkpt>
      <trkpt lat="44.89413" lon="4.13361">
        <ele>1382</ele>
        <time>2026-01-23T14:34:22Z</time>
      </trkpt>
      <trkpt lat="44.89367" lon="4.13453">
        <ele>1383</ele>
        <time>2026-01-23T14:36:08Z</time>
      </trkpt>
      <trkpt lat="44.89218" lon="4.1372">
        <ele>1378</ele>
        <time>2026-01-23T14:41:29Z</time>
      </trkpt>
      <trkpt lat="44.89165" lon="4.13862">
        <ele>1377</ele>
        <time>2026-01-23T14:44:01Z</time>
      </trkpt>
      <trkpt lat="44.89174" lon="4.13943">
        <ele>1376</ele>
        <time>2026-01-23T14:45:19Z</time>
      </trkpt>
      <trkpt lat="44.89181" lon="4.13982">
        <ele>1375</ele>
        <time>2026-01-23T14:45:57Z</time>
      </trkpt>
      <trkpt lat="44.89241" lon="4.14174">
        <ele>1374</ele>
        <time>2026-01-23T14:49:15Z</time>
      </trkpt>
      <trkpt lat="44.8926" lon="4.14209">
        <ele>1373</ele>
        <time>2026-01-23T14:49:57Z</time>
      </trkpt>
      <trkpt lat="44.8944" lon="4.14476">
        <ele>1365</ele>
        <time>2026-01-23T14:55:45Z</time>
      </trkpt>
      <trkpt lat="44.8953" lon="4.146">
        <ele>1359</ele>
        <time>2026-01-23T14:58:33Z</time>
      </trkpt>
      <trkpt lat="44.89588" lon="4.1469">
        <ele>1354</ele>
        <time>2026-01-23T15:00:28Z</time>
      </trkpt>
      <trkpt lat="44.89607" lon="4.1471">
        <ele>1352</ele>
        <time>2026-01-23T15:01:00Z</time>
      </trkpt>
      <trkpt lat="44.89632" lon="4.14726">
        <ele>1350</ele>
        <time>2026-01-23T15:01:36Z</time>
      </trkpt>
      <trkpt lat="44.89686" lon="4.14749">
        <ele>1346</ele>
        <time>2026-01-23T15:02:51Z</time>
      </trkpt>
      <trkpt lat="44.89772" lon="4.14779">
        <ele>1342</ele>
        <time>2026-01-23T15:04:50Z</time>
      </trkpt>
      <trkpt lat="44.89786" lon="4.14799">
        <ele>1340</ele>
        <time>2026-01-23T15:05:16Z</time>
      </trkpt>
      <trkpt lat="44.89794" lon="4.14856">
        <ele>1335</ele>
        <time>2026-01-23T15:06:11Z</time>
      </trkpt>
      <trkpt lat="44.898" lon="4.14876">
        <ele>1334</ele>
        <time>2026-01-23T15:06:32Z</time>
      </trkpt>
      <trkpt lat="44.8981" lon="4.14887">
        <ele>1333</ele>
        <time>2026-01-23T15:06:49Z</time>
      </trkpt>
      <trkpt lat="44.89907" lon="4.14947">
        <ele>1328</ele>
        <time>2026-01-23T15:09:10Z</time>
      </trkpt>
      <trkpt lat="44.89927" lon="4.14965">
        <ele>1327</ele>
        <time>2026-01-23T15:09:42Z</time>
      </trkpt>
      <trkpt lat="44.89941" lon="4.14987">
        <ele>1327</ele>
        <time>2026-01-23T15:10:10Z</time>
      </trkpt>
      <trkpt lat="44.89955" lon="4.1504">
        <ele>1324</ele>
        <time>2026-01-23T15:11:03Z</time>
      </trkpt>
      <trkpt lat="44.89962" lon="4.15057">
        <ele>1323</ele>
        <time>2026-01-23T15:11:22Z</time>
      </trkpt>
      <trkpt lat="44.89982" lon="4.15078">
        <ele>1321</ele>
        <time>2026-01-23T15:11:55Z</time>
      </trkpt>
      <trkpt lat="44.89986" lon="4.15087">
        <ele>1320</ele>
        <time>2026-01-23T15:12:05Z</time>
      </trkpt>
      <trkpt lat="44.8999" lon="4.15132">
        <ele>1315</ele>
        <time>2026-01-23T15:12:48Z</time>
      </trkpt>
      <trkpt lat="44.90007" lon="4.15255">
        <ele>1308</ele>
        <time>2026-01-23T15:14:46Z</time>
      </trkpt>
      <trkpt lat="44.90007" lon="4.15332">
        <ele>1310</ele>
        <time>2026-01-23T15:15:59Z</time>
      </trkpt>
      <trkpt lat="44.90015" lon="4.15362">
        <ele>1311</ele>
        <time>2026-01-23T15:16:29Z</time>
      </trkpt>
      <trkpt lat="44.90155" lon="4.15597">
        <ele>1327</ele>
        <time>2026-01-23T15:21:20Z</time>
      </trkpt>
      <trkpt lat="44.90176" lon="4.15607">
        <ele>1329</ele>
        <time>2026-01-23T15:21:49Z</time>
      </trkpt>
      <trkpt lat="44.90189" lon="4.15609">
        <ele>1331</ele>
        <time>2026-01-23T15:22:07Z</time>
      </trkpt>
      <trkpt lat="44.90201" lon="4.15603">
        <ele>1331</ele>
        <time>2026-01-23T15:22:24Z</time>
      </trkpt>
      <trkpt lat="44.90242" lon="4.15555">
        <ele>1333</ele>
        <time>2026-01-23T15:23:35Z</time>
      </trkpt>
      <trkpt lat="44.90264" lon="4.15517">
        <ele>1334</ele>
        <time>2026-01-23T15:24:21Z</time>
      </trkpt>
      <trkpt lat="44.90271" lon="4.15513">
        <ele>1334</ele>
        <time>2026-01-23T15:24:31Z</time>
      </trkpt>
      <trkpt lat="44.9028" lon="4.15518">
        <ele>1335</ele>
        <time>2026-01-23T15:24:44Z</time>
      </trkpt>
      <trkpt lat="44.90282" lon="4.15529">
        <ele>1335</ele>
        <time>2026-01-23T15:24:55Z</time>
      </trkpt>
      <trkpt lat="44.90297" lon="4.15541">
        <ele>1337</ele>
        <time>2026-01-23T15:25:18Z</time>
      </trkpt>
      <trkpt lat="44.90317" lon="4.15566">
        <ele>1340</ele>
        <time>2026-01-23T15:25:53Z</time>
      </trkpt>
      <trkpt lat="44.90335" lon="4.15574">
        <ele>1342</ele>
        <time>2026-01-23T15:26:19Z</time>
      </trkpt>
      <trkpt lat="44.90363" lon="4.15578">
        <ele>1344</ele>
        <time>2026-01-23T15:26:56Z</time>
      </trkpt>
      <trkpt lat="44.90378" lon="4.15594">
        <ele>1345</ele>
        <time>2026-01-23T15:27:21Z</time>
        <extensions>
          <visugpx:TrkExtension xmlns:visugpx="https://www.visugpx.com/editgpx/">
            <visugpx:node>9</visugpx:node>
            </visugpx:TrkExtension>
        </extensions>
      </trkpt>
    </trkseg>
  </trk>
</gpx>